createdAt,value
2023-04-18T00:00:14.080Z,8.20
2023-04-18T00:00:35.128Z,7.80
2023-04-18T00:00:56.180Z,7.60
2023-04-18T00:01:17.237Z,8.00
2023-04-18T00:01:38.361Z,7.50
2023-04-18T00:01:59.512Z,7.70
2023-04-18T00:02:20.924Z,7.50
2023-04-18T00:02:42.270Z,7.60
2023-04-18T00:03:04.420Z,7.40
2023-04-18T00:03:26.053Z,7.40
2023-04-18T00:03:47.492Z,7.50
2023-04-18T00:04:08.915Z,7.70
2023-04-18T00:04:30.119Z,7.70
2023-04-18T00:04:51.454Z,7.20
2023-04-18T00:05:12.630Z,7.40
2023-04-18T00:05:33.692Z,7.50
2023-04-18T00:05:54.738Z,7.60
2023-04-18T00:06:15.790Z,7.90
2023-04-18T00:06:36.849Z,7.50
2023-04-18T00:06:57.897Z,7.10
2023-04-18T00:07:18.949Z,7.70
2023-04-18T00:07:40.222Z,7.80
2023-04-18T00:08:01.334Z,7.70
2023-04-18T00:08:22.375Z,7.40
2023-04-18T00:08:43.438Z,7.80
2023-04-18T00:09:04.524Z,7.90
2023-04-18T00:09:25.594Z,7.90
2023-04-18T00:09:46.662Z,7.60
2023-04-18T00:10:07.736Z,7.60
2023-04-18T00:10:28.785Z,7.80
2023-04-18T00:10:49.840Z,7.80
2023-04-18T00:11:10.883Z,7.80
2023-04-18T00:11:31.942Z,8.20
2023-04-18T00:11:53.055Z,8.20
2023-04-18T00:12:14.087Z,7.90
2023-04-18T00:12:35.142Z,7.80
2023-04-18T00:12:56.396Z,7.70
2023-04-18T00:13:17.446Z,7.90
2023-04-18T00:13:38.559Z,7.60
2023-04-18T00:13:59.629Z,7.90
2023-04-18T00:14:20.667Z,8.00
2023-04-18T00:14:41.743Z,7.80
2023-04-18T00:15:02.804Z,7.50
2023-04-18T00:15:23.858Z,7.60
2023-04-18T00:15:44.903Z,8.10
2023-04-18T00:16:05.986Z,7.90
2023-04-18T00:16:27.225Z,7.70
2023-04-18T00:16:48.387Z,7.70
2023-04-18T00:17:09.489Z,8.10
2023-04-18T00:17:30.576Z,8.00
2023-04-18T00:17:51.640Z,7.70
2023-04-18T00:18:12.864Z,7.50
2023-04-18T00:18:34.155Z,8.20
2023-04-18T00:18:55.185Z,7.80
2023-04-18T00:19:16.245Z,7.90
2023-04-18T00:19:37.321Z,7.50
2023-04-18T00:19:58.364Z,7.40
2023-04-18T00:20:19.422Z,7.60
2023-04-18T00:20:40.469Z,7.70
2023-04-18T00:21:01.545Z,7.50
2023-04-18T00:21:22.670Z,8.20
2023-04-18T00:21:43.715Z,8.20
2023-04-18T00:22:04.775Z,8.00
2023-04-18T00:22:25.831Z,7.90
2023-04-18T00:22:46.882Z,7.70
2023-04-18T00:23:07.940Z,7.60
2023-04-18T00:23:29.040Z,7.60
2023-04-18T00:23:50.108Z,7.40
2023-04-18T00:24:11.264Z,7.80
2023-04-18T00:24:32.371Z,7.60
2023-04-18T00:24:53.387Z,8.00
2023-04-18T00:25:14.488Z,7.40
2023-04-18T00:25:35.548Z,7.50
2023-04-18T00:25:56.606Z,7.50
2023-04-18T00:26:17.658Z,8.20
2023-04-18T00:26:38.720Z,8.40
2023-04-18T00:26:59.811Z,7.80
2023-04-18T00:27:20.830Z,7.70
2023-04-18T00:27:41.916Z,7.60
2023-04-18T00:28:02.987Z,7.70
2023-04-18T00:28:24.016Z,7.80
2023-04-18T00:28:45.106Z,8.10
2023-04-18T00:29:06.369Z,8.20
2023-04-18T00:29:27.404Z,7.90
2023-04-18T00:29:48.465Z,8.10
2023-04-18T00:30:09.532Z,7.80
2023-04-18T00:30:30.682Z,7.70
2023-04-18T00:30:51.734Z,8.00
2023-04-18T00:31:12.856Z,8.00
2023-04-18T00:31:33.902Z,7.40
2023-04-18T00:31:54.968Z,7.40
2023-04-18T00:32:16.027Z,7.50
2023-04-18T00:32:37.161Z,7.70
2023-04-18T00:32:58.303Z,7.80
2023-04-18T00:33:19.343Z,7.70
2023-04-18T00:33:40.375Z,7.90
2023-04-18T00:34:01.658Z,8.40
2023-04-18T00:34:22.886Z,8.00
2023-04-18T00:34:43.939Z,8.20
2023-04-18T00:35:04.986Z,8.10
2023-04-18T00:35:26.112Z,8.10
2023-04-18T00:35:47.140Z,8.50
2023-04-18T00:36:08.202Z,8.20
2023-04-18T00:36:29.257Z,8.00
2023-04-18T00:36:50.300Z,8.00
2023-04-18T00:37:11.383Z,8.00
2023-04-18T00:37:32.424Z,7.80
2023-04-18T00:37:53.465Z,7.70
2023-04-18T00:38:14.641Z,8.00
2023-04-18T00:38:35.661Z,8.00
2023-04-18T00:38:56.718Z,7.90
2023-04-18T00:39:17.832Z,7.90
2023-04-18T00:39:39.082Z,8.20
2023-04-18T00:40:00.176Z,8.40
2023-04-18T00:40:21.271Z,8.40
2023-04-18T00:40:42.289Z,7.70
2023-04-18T00:41:03.335Z,7.60
2023-04-18T00:41:24.375Z,8.00
2023-04-18T00:41:45.440Z,8.00
2023-04-18T00:42:06.514Z,7.70
2023-04-18T00:42:27.616Z,7.80
2023-04-18T00:42:48.674Z,7.50
2023-04-18T00:43:09.711Z,7.70
2023-04-18T00:43:30.769Z,7.90
2023-04-18T00:43:51.844Z,7.90
2023-04-18T00:44:13.152Z,8.10
2023-04-18T00:44:34.506Z,8.00
2023-04-18T00:44:55.619Z,7.60
2023-04-18T00:45:16.633Z,7.80
2023-04-18T00:45:37.703Z,8.00
2023-04-18T00:45:58.835Z,8.10
2023-04-18T00:46:19.951Z,8.10
2023-04-18T00:46:41.138Z,8.20
2023-04-18T00:47:02.296Z,8.00
2023-04-18T00:47:23.367Z,7.70
2023-04-18T00:47:44.508Z,7.30
2023-04-18T00:48:05.629Z,8.20
2023-04-18T00:48:26.654Z,7.90
2023-04-18T00:48:47.710Z,7.80
2023-04-18T00:49:08.816Z,7.50
2023-04-18T00:49:29.838Z,8.50
2023-04-18T00:49:51.086Z,8.70
2023-04-18T00:50:12.184Z,8.90
2023-04-18T00:50:33.227Z,8.40
2023-04-18T00:50:54.350Z,8.10
2023-04-18T00:51:15.396Z,7.80
2023-04-18T00:51:36.446Z,8.10
2023-04-18T00:51:57.495Z,7.90
2023-04-18T00:52:18.586Z,7.80
2023-04-18T00:52:39.609Z,8.10
2023-04-18T00:53:00.672Z,7.60
2023-04-18T00:53:21.732Z,7.40
2023-04-18T00:53:42.809Z,7.80
2023-04-18T00:54:03.860Z,8.10
2023-04-18T00:54:24.933Z,8.00
2023-04-18T00:54:45.985Z,7.70
2023-04-18T00:55:07.061Z,7.60
2023-04-18T00:55:28.158Z,7.20
2023-04-18T00:55:49.214Z,7.80
2023-04-18T00:56:10.265Z,7.60
2023-04-18T00:56:31.326Z,8.00
2023-04-18T00:56:52.380Z,7.90
2023-04-18T00:57:13.451Z,7.80
2023-04-18T00:57:34.487Z,8.40
2023-04-18T00:57:55.567Z,8.20
2023-04-18T00:58:16.604Z,7.90
2023-04-18T00:58:37.653Z,7.70
2023-04-18T00:58:58.710Z,8.20
2023-04-18T00:59:19.765Z,8.40
2023-04-18T00:59:40.827Z,8.00
2023-04-18T01:00:01.890Z,8.50
2023-04-18T01:00:22.964Z,8.10
2023-04-18T01:00:44.050Z,8.50
2023-04-18T01:01:05.157Z,8.20
2023-04-18T01:01:26.294Z,8.00
2023-04-18T01:01:47.406Z,8.00
2023-04-18T01:02:08.518Z,8.00
2023-04-18T01:02:29.670Z,8.20
2023-04-18T01:02:50.990Z,8.00
2023-04-18T01:03:12.248Z,8.20
2023-04-18T01:03:33.528Z,8.30
2023-04-18T01:03:54.759Z,7.80
2023-04-18T01:04:16.201Z,8.00
2023-04-18T01:04:37.535Z,8.00
2023-04-18T01:04:58.635Z,7.80
2023-04-18T01:05:19.711Z,8.00
2023-04-18T01:05:40.931Z,7.90
2023-04-18T01:06:02.019Z,8.30
2023-04-18T01:06:23.116Z,8.70
2023-04-18T01:06:44.148Z,8.00
2023-04-18T01:07:05.205Z,8.00
2023-04-18T01:07:26.248Z,8.10
2023-04-18T01:07:47.318Z,7.80
2023-04-18T01:08:08.397Z,8.10
2023-04-18T01:08:29.485Z,7.70
2023-04-18T01:08:50.524Z,8.20
2023-04-18T01:09:11.577Z,8.10
2023-04-18T01:09:32.627Z,8.40
2023-04-18T01:09:53.711Z,8.00
2023-04-18T01:10:14.759Z,8.40
2023-04-18T01:10:35.823Z,8.50
2023-04-18T01:10:56.923Z,8.10
2023-04-18T01:11:18.015Z,8.00
2023-04-18T01:11:39.102Z,8.40
2023-04-18T01:12:00.145Z,7.90
2023-04-18T01:12:21.212Z,8.50
2023-04-18T01:12:42.254Z,8.40
2023-04-18T01:13:03.305Z,8.30
2023-04-18T01:13:24.364Z,8.20
2023-04-18T01:13:45.426Z,8.30
2023-04-18T01:14:06.481Z,7.90
2023-04-18T01:14:27.567Z,8.10
2023-04-18T01:14:48.643Z,8.00
2023-04-18T01:15:09.683Z,8.60
2023-04-18T01:15:30.753Z,8.40
2023-04-18T01:15:51.824Z,8.20
2023-04-18T01:16:13.083Z,8.20
2023-04-18T01:16:34.190Z,8.80
2023-04-18T01:16:55.250Z,8.60
2023-04-18T01:17:16.350Z,8.20
2023-04-18T01:17:37.387Z,8.70
2023-04-18T01:17:58.483Z,8.80
2023-04-18T01:18:19.524Z,8.00
2023-04-18T01:18:40.585Z,8.50
2023-04-18T01:19:01.670Z,7.90
2023-04-18T01:19:22.726Z,7.80
2023-04-18T01:19:43.769Z,8.50
2023-04-18T01:20:04.821Z,8.80
2023-04-18T01:20:25.878Z,8.60
2023-04-18T01:20:46.941Z,8.20
2023-04-18T01:21:07.994Z,8.50
2023-04-18T01:21:29.095Z,8.50
2023-04-18T01:21:50.167Z,8.60
2023-04-18T01:22:11.206Z,8.10
2023-04-18T01:22:32.293Z,8.40
2023-04-18T01:22:53.323Z,8.90
2023-04-18T01:23:14.370Z,8.50
2023-04-18T01:23:35.442Z,8.40
2023-04-18T01:23:56.486Z,8.00
2023-04-18T01:24:17.570Z,8.30
2023-04-18T01:24:38.617Z,8.30
2023-04-18T01:24:59.679Z,8.50
2023-04-18T01:25:20.786Z,8.30
2023-04-18T01:25:41.830Z,8.70
2023-04-18T01:26:02.890Z,8.70
2023-04-18T01:26:23.946Z,8.60
2023-04-18T01:26:45.036Z,8.70
2023-04-18T01:27:06.168Z,8.60
2023-04-18T01:27:27.424Z,9.00
2023-04-18T01:27:48.491Z,9.10
2023-04-18T01:28:09.506Z,8.80
2023-04-18T01:28:30.553Z,8.60
2023-04-18T01:28:51.617Z,8.60
2023-04-18T01:29:12.695Z,8.40
2023-04-18T01:29:33.736Z,8.50
2023-04-18T01:29:54.796Z,8.20
2023-04-18T01:30:15.873Z,8.90
2023-04-18T01:30:36.918Z,8.80
2023-04-18T01:30:57.993Z,9.10
2023-04-18T01:31:19.060Z,8.90
2023-04-18T01:31:40.201Z,8.40
2023-04-18T01:32:01.307Z,8.60
2023-04-18T01:32:22.452Z,8.80
2023-04-18T01:32:43.531Z,8.90
2023-04-18T01:33:04.599Z,9.50
2023-04-18T01:33:25.630Z,9.10
2023-04-18T01:33:46.724Z,8.80
2023-04-18T01:34:07.769Z,8.60
2023-04-18T01:34:28.818Z,8.60
2023-04-18T01:34:49.891Z,8.60
2023-04-18T01:35:10.944Z,8.70
2023-04-18T01:35:32.038Z,8.80
2023-04-18T01:35:53.078Z,8.90
2023-04-18T01:36:14.157Z,8.70
2023-04-18T01:36:35.201Z,8.90
2023-04-18T01:36:56.248Z,8.60
2023-04-18T01:37:17.336Z,8.20
2023-04-18T01:37:38.422Z,8.50
2023-04-18T01:37:59.501Z,8.20
2023-04-18T01:38:20.550Z,8.00
2023-04-18T01:38:41.602Z,8.40
2023-04-18T01:39:02.666Z,8.50
2023-04-18T01:39:23.715Z,8.70
2023-04-18T01:39:44.776Z,8.70
2023-04-18T01:40:05.841Z,8.10
2023-04-18T01:40:26.889Z,8.30
2023-04-18T01:40:47.950Z,8.90
2023-04-18T01:41:09.010Z,9.10
2023-04-18T01:41:30.075Z,8.80
2023-04-18T01:41:51.123Z,9.30
2023-04-18T01:42:12.188Z,9.20
2023-04-18T01:42:33.470Z,8.60
2023-04-18T01:42:54.711Z,8.00
2023-04-18T01:43:15.747Z,8.50
2023-04-18T01:43:36.805Z,8.90
2023-04-18T01:43:57.869Z,9.00
2023-04-18T01:44:18.935Z,8.90
2023-04-18T01:44:39.979Z,8.80
2023-04-18T01:45:01.048Z,8.50
2023-04-18T01:45:22.114Z,8.40
2023-04-18T01:45:43.158Z,8.90
2023-04-18T01:46:04.210Z,8.90
2023-04-18T01:46:25.299Z,8.50
2023-04-18T01:46:46.393Z,8.90
2023-04-18T01:47:07.472Z,8.70
2023-04-18T01:47:28.567Z,8.60
2023-04-18T01:47:49.818Z,9.00
2023-04-18T01:48:11.103Z,8.90
2023-04-18T01:48:32.173Z,9.10
2023-04-18T01:48:53.217Z,8.60
2023-04-18T01:49:14.293Z,8.40
2023-04-18T01:49:35.331Z,8.80
2023-04-18T01:49:56.386Z,8.40
2023-04-18T01:50:17.439Z,8.60
2023-04-18T01:50:38.500Z,9.70
2023-04-18T01:50:59.560Z,9.40
2023-04-18T01:51:20.614Z,8.90
2023-04-18T01:51:41.722Z,9.10
2023-04-18T01:52:02.776Z,9.00
2023-04-18T01:52:23.831Z,8.90
2023-04-18T01:52:44.891Z,8.80
2023-04-18T01:53:06.119Z,8.80
2023-04-18T01:53:27.357Z,9.20
2023-04-18T01:53:48.478Z,9.60
2023-04-18T01:54:09.551Z,9.30
2023-04-18T01:54:30.607Z,8.90
2023-04-18T01:54:51.666Z,8.80
2023-04-18T01:55:12.720Z,9.40
2023-04-18T01:55:33.803Z,8.90
2023-04-18T01:55:54.832Z,8.80
2023-04-18T01:56:15.891Z,9.00
2023-04-18T01:56:36.949Z,9.10
2023-04-18T01:56:58.002Z,9.10
2023-04-18T01:57:19.064Z,9.20
2023-04-18T01:57:40.127Z,9.80
2023-04-18T01:58:01.174Z,9.90
2023-04-18T01:58:22.257Z,9.60
2023-04-18T01:58:43.318Z,9.10
2023-04-18T01:59:04.377Z,9.40
2023-04-18T01:59:25.448Z,9.30
2023-04-18T01:59:46.505Z,9.20
2023-04-18T02:00:07.552Z,9.40
2023-04-18T02:00:28.612Z,9.30
2023-04-18T02:00:49.684Z,9.00
2023-04-18T02:01:10.788Z,9.50
2023-04-18T02:01:31.825Z,9.40
2023-04-18T02:01:52.967Z,9.40
2023-04-18T02:02:14.140Z,9.20
2023-04-18T02:02:35.359Z,9.20
2023-04-18T02:02:56.670Z,9.80
2023-04-18T02:03:18.051Z,10.10
2023-04-18T02:03:39.436Z,9.60
2023-04-18T02:04:00.668Z,10.10
2023-04-18T02:04:21.790Z,10.00
2023-04-18T02:04:42.854Z,9.30
2023-04-18T02:05:03.892Z,9.00
2023-04-18T02:05:24.953Z,9.30
2023-04-18T02:05:46.010Z,9.30
2023-04-18T02:06:07.074Z,9.10
2023-04-18T02:06:28.145Z,8.50
2023-04-18T02:06:49.205Z,9.60
2023-04-18T02:07:10.262Z,9.30
2023-04-18T02:07:31.332Z,9.30
2023-04-18T02:07:52.414Z,9.80
2023-04-18T02:08:13.464Z,9.90
2023-04-18T02:08:34.526Z,9.80
2023-04-18T02:08:55.618Z,9.30
2023-04-18T02:09:16.699Z,9.70
2023-04-18T02:09:37.753Z,10.00
2023-04-18T02:09:58.822Z,9.90
2023-04-18T02:10:19.870Z,9.80
2023-04-18T02:10:40.982Z,9.10
2023-04-18T02:11:02.023Z,9.30
2023-04-18T02:11:23.077Z,9.40
2023-04-18T02:11:44.164Z,9.90
2023-04-18T02:12:05.200Z,9.40
2023-04-18T02:12:26.250Z,9.20
2023-04-18T02:12:47.336Z,9.60
2023-04-18T02:13:08.367Z,9.50
2023-04-18T02:13:29.470Z,9.30
2023-04-18T02:13:50.504Z,9.40
2023-04-18T02:14:12.042Z,9.40
2023-04-18T02:14:33.291Z,9.30
2023-04-18T02:14:54.360Z,9.80
2023-04-18T02:15:15.409Z,9.70
2023-04-18T02:15:36.484Z,9.60
2023-04-18T02:15:57.561Z,9.50
2023-04-18T02:16:18.644Z,9.10
2023-04-18T02:16:39.756Z,9.20
2023-04-18T02:17:00.803Z,9.80
2023-04-18T02:17:21.878Z,9.70
2023-04-18T02:17:42.959Z,9.60
2023-04-18T02:18:04.048Z,9.50
2023-04-18T02:18:25.107Z,10.10
2023-04-18T02:18:46.164Z,9.40
2023-04-18T02:19:07.260Z,9.30
2023-04-18T02:19:28.472Z,9.90
2023-04-18T02:19:49.570Z,10.10
2023-04-18T02:20:10.674Z,9.10
2023-04-18T02:20:31.723Z,9.00
2023-04-18T02:20:52.800Z,9.10
2023-04-18T02:21:13.825Z,9.30
2023-04-18T02:21:34.898Z,9.80
2023-04-18T02:21:55.972Z,10.00
2023-04-18T02:22:17.011Z,9.10
2023-04-18T02:22:38.069Z,9.20
2023-04-18T02:22:59.124Z,9.60
2023-04-18T02:23:20.182Z,10.40
2023-04-18T02:23:41.235Z,10.20
2023-04-18T02:24:02.325Z,9.80
2023-04-18T02:24:23.382Z,10.00
2023-04-18T02:24:44.617Z,9.80
2023-04-18T02:25:05.702Z,9.70
2023-04-18T02:25:26.763Z,9.40
2023-04-18T02:25:47.818Z,9.40
2023-04-18T02:26:08.907Z,9.20
2023-04-18T02:26:29.951Z,9.60
2023-04-18T02:26:51.008Z,10.00
2023-04-18T02:27:12.072Z,9.80
2023-04-18T02:27:33.142Z,9.40
2023-04-18T02:27:54.205Z,9.50
2023-04-18T02:28:15.270Z,9.40
2023-04-18T02:28:36.332Z,9.60
2023-04-18T02:28:57.391Z,10.20
2023-04-18T02:29:18.455Z,10.10
2023-04-18T02:29:39.509Z,10.90
2023-04-18T02:30:00.591Z,10.60
2023-04-18T02:30:21.688Z,9.60
2023-04-18T02:30:42.812Z,9.70
2023-04-18T02:31:03.863Z,9.80
2023-04-18T02:31:24.928Z,10.20
2023-04-18T02:31:45.974Z,10.30
2023-04-18T02:32:07.078Z,9.90
2023-04-18T02:32:28.228Z,9.50
2023-04-18T02:32:49.279Z,9.60
2023-04-18T02:33:10.336Z,9.20
2023-04-18T02:33:31.370Z,10.30
2023-04-18T02:33:52.431Z,9.80
2023-04-18T02:34:13.738Z,9.90
2023-04-18T02:34:34.954Z,10.10
2023-04-18T02:34:55.985Z,10.00
2023-04-18T02:35:17.070Z,10.30
2023-04-18T02:35:38.340Z,9.90
2023-04-18T02:35:59.383Z,10.50
2023-04-18T02:36:20.468Z,9.80
2023-04-18T02:36:41.517Z,10.10
2023-04-18T02:37:02.592Z,9.90
2023-04-18T02:37:23.660Z,10.00
2023-04-18T02:37:44.710Z,10.70
2023-04-18T02:38:05.797Z,10.10
2023-04-18T02:38:26.840Z,10.10
2023-04-18T02:38:47.898Z,9.60
2023-04-18T02:39:08.946Z,9.90
2023-04-18T02:39:30.019Z,10.20
2023-04-18T02:39:51.062Z,10.10
2023-04-18T02:40:12.125Z,9.70
2023-04-18T02:40:33.207Z,10.10
2023-04-18T02:40:54.459Z,9.80
2023-04-18T02:41:15.537Z,10.70
2023-04-18T02:41:36.603Z,10.40
2023-04-18T02:41:57.669Z,9.90
2023-04-18T02:42:18.713Z,9.90
2023-04-18T02:42:39.782Z,9.90
2023-04-18T02:43:00.855Z,9.60
2023-04-18T02:43:21.944Z,9.80
2023-04-18T02:43:42.981Z,10.00
2023-04-18T02:44:04.135Z,10.70
2023-04-18T02:44:25.175Z,10.30
2023-04-18T02:44:46.241Z,10.20
2023-04-18T02:45:07.343Z,9.90
2023-04-18T02:45:28.363Z,10.10
2023-04-18T02:45:49.639Z,10.30
2023-04-18T02:46:10.794Z,10.40
2023-04-18T02:46:31.884Z,10.30
2023-04-18T02:46:52.974Z,10.30
2023-04-18T02:47:14.029Z,10.40
2023-04-18T02:47:46.900Z,10.00
2023-04-18T02:48:02.110Z,9.80
2023-04-18T02:48:23.181Z,9.90
2023-04-18T02:48:44.251Z,10.30
2023-04-18T02:49:05.287Z,10.80
2023-04-18T02:49:26.357Z,11.00
2023-04-18T02:49:47.448Z,10.90
2023-04-18T02:50:08.494Z,10.60
2023-04-18T02:50:29.549Z,10.50
2023-04-18T02:50:50.769Z,10.60
2023-04-18T02:51:11.864Z,10.50
2023-04-18T02:51:32.928Z,10.10
2023-04-18T02:51:54.001Z,10.00
2023-04-18T02:52:15.048Z,10.30
2023-04-18T02:52:36.099Z,10.40
2023-04-18T02:52:57.168Z,10.40
2023-04-18T02:53:18.208Z,11.00
2023-04-18T02:53:39.280Z,11.00
2023-04-18T02:54:00.347Z,10.60
2023-04-18T02:54:21.451Z,10.40
2023-04-18T02:54:42.471Z,10.90
2023-04-18T02:55:03.527Z,11.10
2023-04-18T02:55:24.597Z,11.00
2023-04-18T02:55:45.630Z,11.70
2023-04-18T02:56:06.749Z,11.30
2023-04-18T02:56:27.849Z,11.20
2023-04-18T02:56:48.893Z,11.30
2023-04-18T02:57:09.960Z,11.10
2023-04-18T02:57:31.015Z,10.80
2023-04-18T02:57:52.073Z,10.90
2023-04-18T02:58:13.158Z,11.10
2023-04-18T02:58:34.196Z,10.90
2023-04-18T02:58:55.280Z,11.70
2023-04-18T02:59:16.322Z,11.40
2023-04-18T02:59:37.406Z,11.90
2023-04-18T02:59:58.453Z,11.40
2023-04-18T03:00:19.518Z,11.40
2023-04-18T03:00:40.567Z,11.80
2023-04-18T03:01:01.710Z,12.00
2023-04-18T03:01:22.816Z,11.40
2023-04-18T03:01:43.877Z,11.50
2023-04-18T03:02:04.988Z,11.50
2023-04-18T03:02:26.277Z,10.90
2023-04-18T03:02:47.494Z,11.40
2023-04-18T03:03:08.581Z,12.10
2023-04-18T03:03:29.648Z,11.40
2023-04-18T03:03:50.756Z,11.40
2023-04-18T03:04:12.005Z,12.30
2023-04-18T03:04:33.189Z,12.30
2023-04-18T03:04:54.252Z,11.40
2023-04-18T03:05:15.336Z,11.50
2023-04-18T03:05:36.375Z,12.10
2023-04-18T03:05:57.437Z,12.40
2023-04-18T03:06:18.488Z,12.70
2023-04-18T03:06:39.607Z,12.40
2023-04-18T03:07:00.683Z,12.40
2023-04-18T03:07:21.860Z,12.30
2023-04-18T03:07:42.872Z,12.10
2023-04-18T03:08:03.929Z,12.20
2023-04-18T03:08:24.982Z,12.30
2023-04-18T03:08:46.045Z,11.90
2023-04-18T03:09:07.104Z,12.30
2023-04-18T03:09:28.180Z,12.40
2023-04-18T03:09:49.213Z,11.90
2023-04-18T03:10:10.298Z,12.90
2023-04-18T03:10:31.342Z,12.30
2023-04-18T03:10:53.208Z,12.30
2023-04-18T03:11:15.219Z,12.00
2023-04-18T03:11:36.279Z,12.00
2023-04-18T03:11:57.403Z,11.70
2023-04-18T03:12:18.463Z,12.60
2023-04-18T03:12:39.514Z,12.60
2023-04-18T03:13:00.585Z,12.40
2023-04-18T03:13:21.697Z,12.60
2023-04-18T03:13:42.701Z,13.30
2023-04-18T03:14:03.768Z,12.80
2023-04-18T03:14:24.846Z,12.60
2023-04-18T03:14:45.955Z,12.50
2023-04-18T03:15:07.017Z,12.50
2023-04-18T03:15:28.065Z,13.20
2023-04-18T03:15:49.165Z,13.00
2023-04-18T03:16:10.321Z,13.20
2023-04-18T03:16:31.379Z,13.60
2023-04-18T03:16:55.087Z,12.80
2023-04-18T03:17:16.537Z,13.20
2023-04-18T03:17:37.804Z,13.50
2023-04-18T03:17:58.954Z,13.20
2023-04-18T03:18:20.021Z,13.10
2023-04-18T03:18:41.105Z,13.10
2023-04-18T03:19:02.202Z,12.70
2023-04-18T03:19:23.217Z,13.10
2023-04-18T03:19:44.266Z,13.60
2023-04-18T03:20:05.347Z,13.50
2023-04-18T03:20:26.398Z,12.90
2023-04-18T03:20:47.469Z,12.50
2023-04-18T03:21:08.513Z,12.20
2023-04-18T03:21:29.559Z,13.00
2023-04-18T03:21:50.615Z,13.70
2023-04-18T03:22:11.703Z,12.90
2023-04-18T03:22:32.952Z,13.00
2023-04-18T03:22:54.174Z,13.40
2023-04-18T03:23:15.214Z,13.60
2023-04-18T03:23:36.269Z,14.00
2023-04-18T03:23:57.339Z,12.50
2023-04-18T03:24:18.411Z,12.60
2023-04-18T03:24:39.462Z,12.80
2023-04-18T03:25:00.523Z,12.80
2023-04-18T03:25:21.573Z,13.30
2023-04-18T03:25:42.634Z,13.80
2023-04-18T03:26:03.683Z,13.10
2023-04-18T03:26:24.761Z,12.90
2023-04-18T03:26:45.865Z,13.30
2023-04-18T03:27:06.933Z,13.50
2023-04-18T03:27:27.969Z,13.60
2023-04-18T03:27:49.247Z,14.10
2023-04-18T03:28:10.490Z,13.40
2023-04-18T03:28:31.563Z,13.30
2023-04-18T03:28:52.671Z,13.00
2023-04-18T03:29:13.703Z,12.30
2023-04-18T03:29:34.741Z,13.00
2023-04-18T03:29:55.818Z,12.90
2023-04-18T03:30:16.875Z,13.30
2023-04-18T03:30:37.940Z,13.00
2023-04-18T03:30:59.073Z,13.60
2023-04-18T03:31:20.116Z,13.70
2023-04-18T03:31:41.272Z,13.20
2023-04-18T03:32:02.399Z,13.20
2023-04-18T03:32:23.517Z,13.20
2023-04-18T03:32:44.659Z,13.20
2023-04-18T03:33:05.718Z,13.30
2023-04-18T03:33:26.794Z,12.90
2023-04-18T03:33:47.860Z,13.30
2023-04-18T03:34:08.932Z,13.60
2023-04-18T03:34:29.967Z,13.20
2023-04-18T03:34:51.027Z,13.40
2023-04-18T03:35:12.104Z,13.60
2023-04-18T03:35:33.160Z,13.70
2023-04-18T03:35:54.217Z,13.50
2023-04-18T03:36:15.281Z,12.90
2023-04-18T03:36:36.335Z,12.40
2023-04-18T03:36:57.386Z,12.70
2023-04-18T03:37:18.442Z,13.30
2023-04-18T03:37:39.512Z,13.50
2023-04-18T03:38:00.566Z,14.00
2023-04-18T03:38:21.672Z,12.70
2023-04-18T03:38:42.752Z,13.20
2023-04-18T03:39:03.826Z,14.10
2023-04-18T03:39:24.867Z,13.80
2023-04-18T03:39:45.951Z,13.60
2023-04-18T03:40:07.014Z,13.70
2023-04-18T03:40:28.077Z,14.00
2023-04-18T03:40:49.128Z,13.40
2023-04-18T03:41:10.202Z,13.70
2023-04-18T03:41:31.320Z,14.10
2023-04-18T03:41:52.362Z,13.00
2023-04-18T03:42:13.413Z,13.10
2023-04-18T03:42:34.500Z,13.00
2023-04-18T03:42:55.531Z,13.00
2023-04-18T03:43:16.589Z,13.10
2023-04-18T03:43:37.693Z,13.60
2023-04-18T03:43:58.909Z,13.20
2023-04-18T03:44:19.961Z,13.60
2023-04-18T03:44:41.048Z,14.60
2023-04-18T03:45:02.090Z,14.30
2023-04-18T03:45:23.140Z,14.40
2023-04-18T03:45:44.374Z,13.70
2023-04-18T03:46:05.496Z,14.40
2023-04-18T03:46:26.680Z,14.10
2023-04-18T03:46:47.710Z,14.00
2023-04-18T03:47:08.760Z,13.90
2023-04-18T03:47:29.913Z,13.80
2023-04-18T03:47:51.055Z,14.00
2023-04-18T03:48:12.127Z,14.80
2023-04-18T03:48:33.146Z,14.60
2023-04-18T03:48:54.278Z,13.90
2023-04-18T03:49:15.366Z,14.20
2023-04-18T03:49:36.426Z,14.30
2023-04-18T03:49:57.483Z,14.00
2023-04-18T03:50:18.549Z,14.50
2023-04-18T03:50:39.610Z,14.10
2023-04-18T03:51:00.670Z,13.80
2023-04-18T03:51:21.726Z,13.50
2023-04-18T03:51:42.793Z,14.00
2023-04-18T03:52:03.837Z,14.10
2023-04-18T03:52:24.994Z,14.70
2023-04-18T03:52:46.002Z,13.60
2023-04-18T03:53:07.049Z,13.50
2023-04-18T03:53:28.104Z,13.70
2023-04-18T03:53:49.173Z,13.80
2023-04-18T03:54:10.251Z,14.40
2023-04-18T03:54:31.350Z,14.30
2023-04-18T03:54:52.390Z,13.80
2023-04-18T03:55:13.510Z,13.90
2023-04-18T03:55:34.553Z,13.50
2023-04-18T03:55:55.600Z,13.70
2023-04-18T03:56:16.669Z,13.80
2023-04-18T03:56:37.744Z,13.50
2023-04-18T03:56:58.795Z,13.50
2023-04-18T03:57:19.851Z,13.70
2023-04-18T03:57:41.399Z,13.50
2023-04-18T03:58:02.491Z,13.80
2023-04-18T03:58:23.607Z,13.90
2023-04-18T03:58:44.689Z,13.90
2023-04-18T03:59:05.730Z,14.70
2023-04-18T03:59:26.962Z,14.40
2023-04-18T03:59:48.079Z,13.70
2023-04-18T04:00:09.113Z,13.70
2023-04-18T04:00:30.176Z,14.10
2023-04-18T04:00:51.264Z,13.60
2023-04-18T04:01:12.341Z,13.80
2023-04-18T04:01:33.372Z,13.60
2023-04-18T04:01:54.508Z,13.70
2023-04-18T04:02:15.696Z,14.00
2023-04-18T04:02:37.083Z,13.30
2023-04-18T04:02:58.432Z,13.70
2023-04-18T04:03:19.792Z,14.40
2023-04-18T04:03:41.185Z,14.10
2023-04-18T04:04:02.440Z,13.70
2023-04-18T04:04:23.632Z,13.20
2023-04-18T04:04:44.878Z,13.80
2023-04-18T04:05:05.960Z,13.50
2023-04-18T04:05:27.011Z,13.60
2023-04-18T04:05:48.061Z,13.90
2023-04-18T04:06:09.122Z,14.70
2023-04-18T04:06:30.185Z,14.10
2023-04-18T04:06:51.241Z,13.40
2023-04-18T04:07:12.298Z,13.70
2023-04-18T04:07:33.355Z,13.30
2023-04-18T04:07:54.438Z,13.50
2023-04-18T04:08:15.483Z,13.30
2023-04-18T04:08:36.541Z,13.20
2023-04-18T04:08:57.592Z,13.00
2023-04-18T04:09:18.659Z,13.70
2023-04-18T04:09:39.700Z,13.60
2023-04-18T04:10:00.964Z,13.30
2023-04-18T04:10:22.201Z,13.40
2023-04-18T04:10:43.284Z,13.40
2023-04-18T04:11:04.313Z,13.10
2023-04-18T04:11:25.372Z,14.30
2023-04-18T04:11:46.447Z,14.10
2023-04-18T04:12:07.504Z,14.40
2023-04-18T04:12:28.577Z,14.00
2023-04-18T04:12:49.688Z,13.60
2023-04-18T04:13:10.730Z,13.90
2023-04-18T04:13:31.771Z,14.00
2023-04-18T04:13:52.855Z,13.90
2023-04-18T04:14:14.138Z,14.30
2023-04-18T04:14:35.386Z,14.00
2023-04-18T04:14:56.418Z,14.10
2023-04-18T04:15:17.684Z,14.80
2023-04-18T04:15:38.810Z,14.30
2023-04-18T04:15:59.884Z,14.10
2023-04-18T04:16:20.978Z,14.50
2023-04-18T04:16:42.076Z,14.80
2023-04-18T04:17:03.116Z,14.60
2023-04-18T04:17:24.242Z,14.60
2023-04-18T04:17:45.380Z,14.80
2023-04-18T04:18:06.525Z,15.60
2023-04-18T04:18:27.570Z,14.80
2023-04-18T04:18:48.627Z,14.30
2023-04-18T04:19:09.700Z,14.50
2023-04-18T04:19:30.752Z,14.90
2023-04-18T04:19:51.850Z,15.00
2023-04-18T04:20:12.923Z,15.20
2023-04-18T04:20:34.174Z,15.80
2023-04-18T04:20:55.416Z,15.30
2023-04-18T04:21:16.493Z,15.30
2023-04-18T04:21:37.530Z,15.50
2023-04-18T04:21:58.585Z,15.20
2023-04-18T04:22:19.689Z,15.80
2023-04-18T04:22:40.733Z,16.00
2023-04-18T04:23:01.779Z,15.50
2023-04-18T04:23:22.847Z,16.10
2023-04-18T04:23:43.899Z,15.90
2023-04-18T04:24:04.963Z,15.90
2023-04-18T04:24:26.024Z,15.50
2023-04-18T04:24:47.083Z,15.50
2023-04-18T04:25:08.144Z,15.80
2023-04-18T04:25:29.190Z,16.10
2023-04-18T04:25:50.291Z,16.30
2023-04-18T04:26:11.539Z,15.80
2023-04-18T04:26:32.585Z,15.50
2023-04-18T04:26:53.692Z,15.90
2023-04-18T04:27:14.712Z,16.00
2023-04-18T04:27:35.773Z,15.60
2023-04-18T04:27:56.816Z,15.50
2023-04-18T04:28:17.863Z,15.20
2023-04-18T04:28:38.983Z,14.70
2023-04-18T04:29:00.023Z,15.10
2023-04-18T04:29:21.058Z,15.80
2023-04-18T04:29:42.130Z,15.90
2023-04-18T04:30:03.222Z,16.30
2023-04-18T04:30:24.306Z,16.80
2023-04-18T04:30:45.323Z,16.70
2023-04-18T04:31:06.422Z,16.10
2023-04-18T04:31:27.695Z,16.20
2023-04-18T04:31:48.815Z,16.20
2023-04-18T04:32:09.940Z,16.50
2023-04-18T04:32:31.108Z,16.40
2023-04-18T04:32:52.185Z,16.30
2023-04-18T04:33:13.246Z,16.60
2023-04-18T04:33:34.265Z,17.40
2023-04-18T04:33:55.345Z,16.60
2023-04-18T04:34:16.585Z,16.50
2023-04-18T04:34:37.749Z,16.90
2023-04-18T04:34:58.797Z,16.80
2023-04-18T04:35:19.876Z,16.60
2023-04-18T04:35:40.917Z,16.70
2023-04-18T04:36:02.037Z,16.90
2023-04-18T04:36:23.284Z,17.30
2023-04-18T04:37:05.498Z,16.70